This is the latest recevied weather packets stored in our database for station/object K9YK-13. If no packets are shown the sender has not sent any weather packets the latest 10 day(s).
| Time | Temp. | Humidity | Pressure | Rain* | Wind** | Luminosity | Snow |
|---|---|---|---|---|---|---|---|
| 1777719371 | 2.22° C | 96% | 0 hPa | 0 mm | - | - | - |
| 1777719071 | 2.78° C | 95% | 0 hPa | 0 mm | - | - | - |
| 1777718771 | 2.78° C | 96% | 0 hPa | 0 mm | - | - | - |
| 1777718471 | 2.78° C | 96% | 0 hPa | 0 mm | - | - | - |
| 1777718172 | 2.78° C | 96% | 0 hPa | 0 mm | - | - | - |
| 1777717871 | 3.89° C | 95% | 0 hPa | 0 mm | - | - | - |
| 1777717571 | 2.78° C | 96% | 0 hPa | 0 mm | - | - | - |
| 1777717271 | 2.78° C | 96% | 0 hPa | 0 mm | - | - | - |
| 1777716972 | 3.33° C | 93% | 0 hPa | 0 mm | - | - | - |
| 1777716672 | 3.89° C | 93% | 0 hPa | 0 mm | - | - | - |
| 1777716371 | 3.33° C | 93% | 0 hPa | 0 mm | - | - | - |
| 1777716071 | 2.78° C | 92% | 0 hPa | 0 mm | - | - | - |
| 1777715771 | 3.89° C | 88% | 0 hPa | 0 mm | - | - | - |
| 1777715471 | 4.44° C | 89% | 0 hPa | 0 mm | - | - | - |
| 1777715171 | 3.33° C | 89% | 0 hPa | 0 mm | - | - | - |
| 1777714871 | 4.44° C | 88% | 0 hPa | 0 mm | - | - | - |
| 1777714571 | 4.44° C | 88% | 0 hPa | 0 mm | - | - | - |
| 1777714271 | 3.89° C | 89% | 0 hPa | 0 mm | - | - | - |
| 1777713972 | 4.44° C | 89% | 0 hPa | 0 mm | - | - | - |
| 1777713671 | 4.44° C | 90% | 0 hPa | 0 mm | - | - | - |
| 1777713371 | 5° C | 91% | 0 hPa | 0 mm | - | - | - |
| 1777713071 | 4.44° C | 92% | 0 hPa | 0 mm | - | - | - |
| 1777712771 | 3.89° C | 92% | 0 hPa | 0 mm | - | - | - |
| 1777712471 | 4.44° C | 90% | 0 hPa | 0 mm | - | - | - |
| 1777712172 | 4.44° C | 91% | 0 hPa | 0 mm | - | - | - |
* Rain latest hour (hover to see other rain measurements)
** Current wind speed in m/s (hover to see current wind gust speed)